createdAt,value
2022-12-23T00:02:05.480Z,178.93
2022-12-23T00:04:32.980Z,135.25
2022-12-23T00:07:00.757Z,136.18
2022-12-23T00:09:28.294Z,124.55
2022-12-23T00:12:14.440Z,126.07
2022-12-23T00:15:00.362Z,129.57
2022-12-23T00:17:28.011Z,130.48
2022-12-23T00:19:55.807Z,133.90
2022-12-23T00:22:43.388Z,118.63
2022-12-23T00:25:14.333Z,118.80
2022-12-23T00:28:01.217Z,139.70
2022-12-23T00:30:29.180Z,126.30
2022-12-23T00:32:56.768Z,135.65
2022-12-23T00:35:24.316Z,127.32
2022-12-23T00:37:51.867Z,120.20
2022-12-23T00:40:38.143Z,123.45
2022-12-23T00:43:05.626Z,126.68
2022-12-23T00:45:33.146Z,137.90
2022-12-23T00:48:19.303Z,152.40
2022-12-23T00:50:46.886Z,134.93
2022-12-23T00:53:14.455Z,125.03
2022-12-23T00:55:42.316Z,138.45
2022-12-23T00:58:09.844Z,123.68
2022-12-23T01:00:56.588Z,124.95
2022-12-23T01:03:42.893Z,122.05
2022-12-23T01:06:10.668Z,124.25
2022-12-23T01:08:38.591Z,122.90
2022-12-23T01:11:08.547Z,126.15
2022-12-23T01:13:37.481Z,123.15
2022-12-23T01:16:13.331Z,125.38
2022-12-23T01:18:45.188Z,126.82
2022-12-23T01:21:12.918Z,117.80
2022-12-23T01:23:40.554Z,116.80
2022-12-23T01:26:08.740Z,110.47
2022-12-23T01:28:36.732Z,110.78
2022-12-23T01:31:06.166Z,114.07
2022-12-23T01:33:33.971Z,111.03
2022-12-23T01:36:02.994Z,117.18
2022-12-23T01:38:30.652Z,120.85
2022-12-23T01:40:58.294Z,111.63
2022-12-23T01:43:47.453Z,107.45
2022-12-23T01:46:15.227Z,109.50
2022-12-23T01:48:49.223Z,107.65
2022-12-23T01:51:23.179Z,96.95
2022-12-23T01:53:54.772Z,98.03
2022-12-23T01:56:40.861Z,98.10
2022-12-23T01:59:32.477Z,123.03
2022-12-23T02:02:19.540Z,113.10
2022-12-23T02:04:49.883Z,100.13
2022-12-23T02:07:36.544Z,93.30
2022-12-23T02:10:05.735Z,91.50
2022-12-23T02:12:55.084Z,88.03
2022-12-23T02:15:53.568Z,93.18
2022-12-23T02:18:57.388Z,100.72
2022-12-23T02:22:01.999Z,97.95
2022-12-23T02:24:54.057Z,98.28
2022-12-23T02:27:44.383Z,93.05
2022-12-23T02:30:39.026Z,99.82
2022-12-23T02:33:13.972Z,99.00
2022-12-23T02:36:16.883Z,87.30
2022-12-23T02:38:59.703Z,76.60
2022-12-23T02:41:59.304Z,78.38
2022-12-23T02:44:39.602Z,108.85
2022-12-23T02:47:34.882Z,155.63
2022-12-23T02:50:20.335Z,120.47
2022-12-23T02:52:49.982Z,95.18
2022-12-23T02:55:28.965Z,82.05
2022-12-23T02:58:00.927Z,81.95
2022-12-23T03:00:29.988Z,79.13
2022-12-23T03:02:58.076Z,80.53
2022-12-23T03:05:40.601Z,85.43
2022-12-23T03:08:22.602Z,109.75
2022-12-23T03:11:07.317Z,91.88
2022-12-23T03:14:05.942Z,87.85
2022-12-23T03:16:45.490Z,93.88
2022-12-23T03:19:25.273Z,90.20
2022-12-23T03:22:15.488Z,79.18
2022-12-23T03:24:52.160Z,92.63
2022-12-23T03:27:31.272Z,99.32
2022-12-23T03:30:08.680Z,81.72
2022-12-23T03:32:53.064Z,79.38
2022-12-23T03:35:27.076Z,75.75
2022-12-23T03:37:56.589Z,152.35
2022-12-23T03:40:32.967Z,214.93
2022-12-23T03:43:08.111Z,106.28
2022-12-23T03:45:50.888Z,365.38
2022-12-23T03:48:27.805Z,329.25
2022-12-23T03:51:04.263Z,133.85
2022-12-23T03:53:39.334Z,499.38
2022-12-23T03:56:13.222Z,138.52
2022-12-23T03:58:52.840Z,218.45
2022-12-23T04:01:32.642Z,138.30
2022-12-23T04:04:12.033Z,285.58
2022-12-23T04:06:46.877Z,422.85
2022-12-23T04:09:21.765Z,365.55
2022-12-23T04:11:56.818Z,374.73
2022-12-23T04:14:24.453Z,196.40
2022-12-23T04:16:56.121Z,236.40
2022-12-23T04:19:24.033Z,137.55
2022-12-23T04:21:51.918Z,176.30
2022-12-23T04:24:19.406Z,160.52
2022-12-23T04:26:46.941Z,207.43
2022-12-23T04:29:14.494Z,276.48
2022-12-23T04:31:42.534Z,273.20
2022-12-23T04:34:10.139Z,150.43
2022-12-23T04:36:37.647Z,155.55
2022-12-23T04:39:05.096Z,182.20
2022-12-23T04:41:32.957Z,176.77
2022-12-23T04:44:00.520Z,141.10
2022-12-23T04:46:28.037Z,95.20
2022-12-23T04:48:55.858Z,131.18
2022-12-23T04:51:23.750Z,111.82
2022-12-23T04:53:51.266Z,115.75
2022-12-23T04:56:19.874Z,214.10
2022-12-23T04:58:47.541Z,130.48
2022-12-23T05:01:15.453Z,181.40
2022-12-23T05:03:43.074Z,173.90
2022-12-23T05:06:10.715Z,135.98
2022-12-23T05:08:44.606Z,94.97
2022-12-23T05:11:12.239Z,162.98
2022-12-23T05:13:39.783Z,184.18
2022-12-23T05:16:07.500Z,109.05
2022-12-23T05:18:35.333Z,155.27
2022-12-23T05:21:03.043Z,151.90
2022-12-23T05:23:30.668Z,109.03
2022-12-23T05:25:58.182Z,146.68
2022-12-23T05:28:26.052Z,219.45
2022-12-23T05:31:02.696Z,233.43
2022-12-23T05:33:30.922Z,231.82
2022-12-23T05:35:58.911Z,302.85
2022-12-23T05:38:26.794Z,172.25
2022-12-23T05:40:54.508Z,251.77
2022-12-23T05:43:22.143Z,179.65
2022-12-23T05:45:50.360Z,163.13
2022-12-23T05:48:18.281Z,150.82
2022-12-23T05:50:45.854Z,151.10
2022-12-23T05:53:13.311Z,179.05
2022-12-23T05:55:40.797Z,147.40
2022-12-23T05:58:08.288Z,233.95
2022-12-23T06:00:35.819Z,198.18
2022-12-23T06:03:03.762Z,147.30
2022-12-23T06:05:31.375Z,245.73
2022-12-23T06:07:59.128Z,196.95
2022-12-23T06:10:27.437Z,171.40
2022-12-23T06:12:54.911Z,183.55
2022-12-23T06:15:22.507Z,194.52
2022-12-23T06:17:50.080Z,159.70
2022-12-23T06:20:20.709Z,173.52
2022-12-23T06:22:48.712Z,163.88
2022-12-23T06:25:16.521Z,141.23
2022-12-23T06:27:44.372Z,131.60
2022-12-23T06:30:12.961Z,156.25
2022-12-23T06:32:41.792Z,133.57
2022-12-23T06:35:09.595Z,137.27
2022-12-23T06:37:37.096Z,151.10
2022-12-23T06:40:06.582Z,231.90
2022-12-23T06:42:34.187Z,134.63
2022-12-23T06:45:01.722Z,215.15
2022-12-23T06:47:29.423Z,140.85
2022-12-23T06:49:57.995Z,173.57
2022-12-23T06:52:25.746Z,130.07
2022-12-23T06:54:53.225Z,142.25
2022-12-23T06:57:20.724Z,192.00
2022-12-23T06:59:49.927Z,133.70
2022-12-23T07:02:17.663Z,107.40
2022-12-23T07:04:45.499Z,177.32
2022-12-23T07:07:13.327Z,99.78
2022-12-23T07:09:40.863Z,173.95
2022-12-23T07:12:08.694Z,119.70
2022-12-23T07:14:36.250Z,120.85
2022-12-23T07:17:03.832Z,110.80
2022-12-23T07:19:31.594Z,156.82
2022-12-23T07:21:59.195Z,120.53
2022-12-23T07:24:28.289Z,137.07
2022-12-23T07:26:56.051Z,162.95
2022-12-23T07:29:23.651Z,125.15
2022-12-23T07:31:51.266Z,330.02
2022-12-23T07:34:19.079Z,120.55
2022-12-23T07:36:46.589Z,108.25
2022-12-23T07:39:14.077Z,109.80
2022-12-23T07:41:41.686Z,96.55
2022-12-23T07:44:09.211Z,121.68
2022-12-23T07:46:37.423Z,133.20
2022-12-23T07:49:05.348Z,195.10
2022-12-23T07:51:32.869Z,162.38
2022-12-23T07:54:00.363Z,127.47
2022-12-23T07:56:27.814Z,121.97
2022-12-23T07:58:55.449Z,137.55
2022-12-23T08:01:23.432Z,100.88
2022-12-23T08:03:51.062Z,172.10
2022-12-23T08:06:18.596Z,130.00
2022-12-23T08:08:47.048Z,95.95
2022-12-23T08:11:15.798Z,108.38
2022-12-23T08:13:45.165Z,86.40
2022-12-23T08:16:12.918Z,84.25
2022-12-23T08:18:42.014Z,101.40
2022-12-23T08:21:14.939Z,106.78
2022-12-23T08:23:43.697Z,78.88
2022-12-23T08:26:18.416Z,84.00
2022-12-23T08:28:46.095Z,73.80
2022-12-23T08:31:25.293Z,73.50
2022-12-23T08:33:55.640Z,79.32
2022-12-23T08:36:30.919Z,101.78
2022-12-23T08:39:01.562Z,109.72
2022-12-23T08:41:32.844Z,85.50
2022-12-23T08:44:00.545Z,89.43
2022-12-23T08:46:28.496Z,123.13
2022-12-23T08:48:56.291Z,200.15
2022-12-23T08:51:25.460Z,248.57
2022-12-23T08:54:00.074Z,191.27
2022-12-23T08:56:35.216Z,162.73
2022-12-23T08:59:03.607Z,107.35
2022-12-23T09:01:33.731Z,131.27
2022-12-23T09:04:06.156Z,161.05
2022-12-23T09:06:40.714Z,98.80
2022-12-23T09:09:10.678Z,135.20
2022-12-23T09:11:39.121Z,112.07
2022-12-23T09:14:08.616Z,141.35
2022-12-23T09:16:36.687Z,155.55
2022-12-23T09:19:04.888Z,137.18
2022-12-23T09:21:32.435Z,110.50
2022-12-23T09:24:00.175Z,103.65
2022-12-23T09:26:29.845Z,94.10
2022-12-23T09:28:57.589Z,148.50
2022-12-23T09:31:30.481Z,158.50
2022-12-23T09:34:01.799Z,161.55
2022-12-23T09:36:29.918Z,144.20
2022-12-23T09:38:58.170Z,116.45
2022-12-23T09:41:31.243Z,156.77
2022-12-23T09:44:27.997Z,171.90
2022-12-23T09:47:02.119Z,171.70
2022-12-23T09:49:30.102Z,103.47
2022-12-23T09:52:05.963Z,111.47
2022-12-23T09:54:42.243Z,121.38
2022-12-23T09:57:36.444Z,132.75
2022-12-23T10:03:16.343Z,112.78
2022-12-23T10:06:00.482Z,108.05
2022-12-23T10:08:52.805Z,93.00
2022-12-23T10:11:34.104Z,115.03
2022-12-23T10:14:11.149Z,100.50
2022-12-23T10:16:41.505Z,157.93
2022-12-23T10:19:20.740Z,124.65
2022-12-23T10:21:51.815Z,151.05
2022-12-23T10:24:28.556Z,123.03
2022-12-23T10:27:00.789Z,99.72
2022-12-23T10:29:32.733Z,126.40
2022-12-23T10:32:31.315Z,184.48
2022-12-23T10:35:23.653Z,180.05
2022-12-23T10:38:27.893Z,157.63
2022-12-23T10:41:25.354Z,127.82
2022-12-23T10:44:15.245Z,153.43
2022-12-23T10:47:10.022Z,181.35
2022-12-23T10:50:09.537Z,154.73
2022-12-23T10:52:40.824Z,134.65
2022-12-23T10:55:33.727Z,232.93
2022-12-23T10:58:14.664Z,194.52
2022-12-23T11:00:46.730Z,138.13
2022-12-23T11:03:20.232Z,352.35
2022-12-23T11:05:50.795Z,165.43
2022-12-23T11:08:23.877Z,229.13
2022-12-23T11:10:51.456Z,223.73
2022-12-23T11:13:47.018Z,171.77
2022-12-23T11:16:16.925Z,148.98
2022-12-23T11:18:56.700Z,175.57
2022-12-23T11:21:26.093Z,123.55
2022-12-23T11:24:14.521Z,164.88
2022-12-23T11:26:44.697Z,149.65
2022-12-23T11:29:27.557Z,139.43
2022-12-23T11:31:55.381Z,144.35
2022-12-23T11:34:25.885Z,149.93
2022-12-23T11:37:03.635Z,129.73
2022-12-23T11:39:37.137Z,182.02
2022-12-23T11:42:11.999Z,146.90
2022-12-23T11:44:46.464Z,128.75
2022-12-23T11:47:23.096Z,124.53
2022-12-23T11:49:54.492Z,111.07
2022-12-23T11:52:29.035Z,142.70
2022-12-23T11:57:40.710Z,135.70
2022-12-23T12:00:34.679Z,121.97
2022-12-23T12:03:04.943Z,142.00
2022-12-23T12:05:40.718Z,177.52
2022-12-23T12:08:16.564Z,118.93
2022-12-23T12:10:44.382Z,122.60
2022-12-23T12:13:29.275Z,160.18
2022-12-23T12:18:34.923Z,186.30
2022-12-23T12:21:07.372Z,129.07
2022-12-23T12:23:41.133Z,156.02
2022-12-23T12:26:26.990Z,138.43
2022-12-23T12:29:02.689Z,146.20
2022-12-23T12:31:35.999Z,135.35
2022-12-23T12:34:40.445Z,166.73
2022-12-23T12:37:48.293Z,132.80
2022-12-23T12:40:22.565Z,155.88
2022-12-23T12:43:04.976Z,141.45
2022-12-23T12:45:43.867Z,124.53
2022-12-23T12:48:40.657Z,151.20
2022-12-23T12:51:13.051Z,139.18
2022-12-23T12:54:27.727Z,165.65
2022-12-23T12:56:58.397Z,125.57
2022-12-23T12:59:28.390Z,124.63
2022-12-23T13:02:10.958Z,113.93
2022-12-23T13:05:25.962Z,120.75
2022-12-23T13:08:30.262Z,125.80
2022-12-23T13:11:13.942Z,116.07
2022-12-23T13:14:17.427Z,110.70
2022-12-23T13:16:59.269Z,102.50
2022-12-23T13:19:47.106Z,104.65
2022-12-23T13:22:18.062Z,78.28
2022-12-23T13:25:03.340Z,77.78
2022-12-23T13:27:38.767Z,78.53
2022-12-23T13:30:18.028Z,84.78
2022-12-23T13:33:07.923Z,94.78
2022-12-23T13:35:39.313Z,80.28
2022-12-23T13:38:09.488Z,86.53
2022-12-23T13:40:55.221Z,80.60
2022-12-23T13:43:25.291Z,78.53
2022-12-23T13:45:55.437Z,92.95
2022-12-23T13:48:22.982Z,79.07
2022-12-23T13:51:00.889Z,81.13
2022-12-23T13:53:34.338Z,109.85
2022-12-23T13:56:20.098Z,97.13
2022-12-23T13:58:49.753Z,101.55
2022-12-23T14:01:17.796Z,92.90
2022-12-23T14:03:49.932Z,84.20
2022-12-23T14:06:24.654Z,95.22
2022-12-23T14:08:54.436Z,91.00
2022-12-23T14:11:32.087Z,92.68
2022-12-23T14:14:05.424Z,99.45
2022-12-23T14:16:42.213Z,96.30
2022-12-23T14:19:18.841Z,93.97
2022-12-23T14:22:01.422Z,134.10
2022-12-23T14:24:50.181Z,122.43
2022-12-23T14:27:41.635Z,133.27
2022-12-23T14:30:37.362Z,121.13
2022-12-23T14:33:14.981Z,111.28
2022-12-23T14:35:43.023Z,108.97
2022-12-23T14:38:25.065Z,99.47
2022-12-23T14:40:54.408Z,102.50
2022-12-23T14:43:22.233Z,102.78
2022-12-23T14:45:58.289Z,98.20
2022-12-23T14:49:09.622Z,88.70
2022-12-23T14:51:40.648Z,97.30
2022-12-23T14:54:09.366Z,93.55
2022-12-23T14:56:39.620Z,87.55
2022-12-23T14:59:15.851Z,95.25
2022-12-23T15:01:51.835Z,89.15
2022-12-23T15:04:58.588Z,90.13
2022-12-23T15:07:38.654Z,86.75
2022-12-23T15:10:17.571Z,92.40
2022-12-23T15:12:52.099Z,93.57
2022-12-23T15:15:25.272Z,102.63
2022-12-23T15:18:07.169Z,111.28
2022-12-23T15:20:35.297Z,119.35
2022-12-23T15:23:11.994Z,113.43
2022-12-23T15:25:43.410Z,121.70
2022-12-23T15:28:18.289Z,139.25
2022-12-23T15:30:56.735Z,129.10
2022-12-23T15:34:01.602Z,124.38
2022-12-23T15:36:24.782Z,102.55
2022-12-23T15:38:52.626Z,116.82
2022-12-23T15:41:22.341Z,117.03
2022-12-23T15:43:50.177Z,118.05
2022-12-23T15:46:29.014Z,132.15
2022-12-23T15:48:58.323Z,148.43
2022-12-23T15:52:05.155Z,123.43
2022-12-23T15:54:27.670Z,121.32
2022-12-23T15:56:58.675Z,200.57
2022-12-23T15:59:37.263Z,150.32
2022-12-23T16:02:49.685Z,110.50
2022-12-23T16:05:05.288Z,100.10
2022-12-23T16:07:35.040Z,126.07
2022-12-23T16:10:32.689Z,107.60
2022-12-23T16:13:00.403Z,94.18
2022-12-23T16:15:33.263Z,79.53
2022-12-23T16:18:19.243Z,82.38
2022-12-23T16:20:51.701Z,76.97
2022-12-23T16:23:20.723Z,314.02
2022-12-23T16:25:50.876Z,272.63
2022-12-23T16:28:26.563Z,199.20
2022-12-23T16:30:57.441Z,188.25
2022-12-23T16:33:30.160Z,149.32
2022-12-23T16:36:33.361Z,125.68
2022-12-23T16:39:14.579Z,102.63
2022-12-23T16:41:42.170Z,101.38
2022-12-23T16:44:09.615Z,103.60
2022-12-23T16:46:42.208Z,74.28
2022-12-23T16:49:16.876Z,99.07
2022-12-23T16:51:47.082Z,100.20
2022-12-23T16:54:19.871Z,84.53
2022-12-23T16:56:47.457Z,76.68
2022-12-23T16:59:15.414Z,69.72
2022-12-23T17:01:45.972Z,67.30
2022-12-23T17:04:14.357Z,66.00
2022-12-23T17:06:41.973Z,79.28
2022-12-23T17:09:11.322Z,74.50
2022-12-23T17:11:44.846Z,69.50
2022-12-23T17:14:18.949Z,66.68
2022-12-23T17:16:47.060Z,63.77
2022-12-23T17:19:14.614Z,68.60
2022-12-23T17:21:44.647Z,64.88
2022-12-23T17:24:26.814Z,61.45
2022-12-23T17:26:56.793Z,57.10
2022-12-23T17:29:25.321Z,54.90
2022-12-23T17:31:53.160Z,56.35
2022-12-23T17:34:23.414Z,55.65
2022-12-23T17:36:51.733Z,56.13
2022-12-23T17:39:21.572Z,55.67
2022-12-23T17:41:49.579Z,56.40
2022-12-23T17:44:18.288Z,57.67
2022-12-23T17:46:46.810Z,56.35
2022-12-23T17:49:14.636Z,61.42
2022-12-23T17:51:42.861Z,68.57
2022-12-23T17:54:30.800Z,67.20
2022-12-23T17:56:58.500Z,58.60
2022-12-23T17:59:26.036Z,57.13
2022-12-23T18:01:55.183Z,89.97
2022-12-23T18:04:22.681Z,143.38
2022-12-23T18:06:50.205Z,121.93
2022-12-23T18:09:18.826Z,126.28
2022-12-23T18:11:47.913Z,90.78
2022-12-23T18:14:24.767Z,86.63
2022-12-23T18:16:52.440Z,82.47
2022-12-23T18:19:21.526Z,78.40
2022-12-23T18:21:49.898Z,178.27
2022-12-23T18:24:18.310Z,183.85
2022-12-23T18:26:45.845Z,162.65
2022-12-23T18:29:13.418Z,169.50
2022-12-23T18:31:50.931Z,184.98
2022-12-23T18:34:20.121Z,252.43
2022-12-23T18:36:48.429Z,235.63
2022-12-23T18:39:16.229Z,97.82
2022-12-23T18:41:43.849Z,83.70
2022-12-23T18:44:21.478Z,70.53
2022-12-23T18:46:49.596Z,127.18
2022-12-23T18:49:17.243Z,180.95
2022-12-23T18:51:45.756Z,128.90
2022-12-23T18:54:15.261Z,111.80
2022-12-23T18:56:43.092Z,85.60
2022-12-23T18:59:29.286Z,79.20
2022-12-23T19:01:58.335Z,72.93
2022-12-23T19:04:26.993Z,77.93
2022-12-23T19:06:55.846Z,65.65
2022-12-23T19:09:24.363Z,77.10
2022-12-23T19:11:53.903Z,95.22
2022-12-23T19:14:21.703Z,84.22
2022-12-23T19:16:52.082Z,91.43
2022-12-23T19:19:21.355Z,83.00
2022-12-23T19:21:48.951Z,63.97
2022-12-23T19:24:18.190Z,239.68
2022-12-23T19:26:47.056Z,175.57
2022-12-23T19:29:14.765Z,97.90
2022-12-23T19:31:42.400Z,82.03
2022-12-23T19:34:15.038Z,105.70
2022-12-23T19:36:43.810Z,125.15
2022-12-23T19:39:16.351Z,108.93
2022-12-23T19:41:46.277Z,99.70
2022-12-23T19:44:14.276Z,107.80
2022-12-23T19:46:42.044Z,148.43
2022-12-23T19:49:14.084Z,162.45
2022-12-23T19:51:45.200Z,105.88
2022-12-23T19:54:12.804Z,94.78
2022-12-23T19:56:40.446Z,75.57
2022-12-23T19:59:07.984Z,62.80
2022-12-23T20:01:35.581Z,64.88
2022-12-23T20:04:03.391Z,111.65
2022-12-23T20:06:33.854Z,144.68
2022-12-23T20:09:04.367Z,142.48
2022-12-23T20:11:46.887Z,125.68
2022-12-23T20:14:17.367Z,142.95
2022-12-23T20:16:44.919Z,113.47
2022-12-23T20:19:12.455Z,133.20
2022-12-23T20:21:40.470Z,118.88
2022-12-23T20:24:08.486Z,115.57
2022-12-23T20:26:36.058Z,108.45
2022-12-23T20:29:03.675Z,132.50
2022-12-23T20:31:33.515Z,241.32
2022-12-23T20:34:02.392Z,177.55
2022-12-23T20:36:33.155Z,139.88
2022-12-23T20:39:03.366Z,105.43
2022-12-23T20:41:32.125Z,101.85
2022-12-23T20:46:47.438Z,202.93
2022-12-23T20:49:15.129Z,183.02
2022-12-23T20:51:42.655Z,104.78
2022-12-23T20:54:10.280Z,82.45
2022-12-23T20:56:37.887Z,81.30
2022-12-23T20:59:05.485Z,68.57
2022-12-23T21:01:35.841Z,62.30
2022-12-23T21:04:12.931Z,62.97
2022-12-23T21:06:40.682Z,63.03
2022-12-23T21:09:11.704Z,58.00
2022-12-23T21:11:43.099Z,62.55
2022-12-23T21:14:11.909Z,57.60
2022-12-23T21:16:40.414Z,65.00
2022-12-23T21:19:20.584Z,53.83
2022-12-23T21:21:49.410Z,55.85
2022-12-23T21:24:17.904Z,58.42
2022-12-23T21:26:48.967Z,58.80
2022-12-23T21:31:47.835Z,67.45
2022-12-23T21:34:15.594Z,67.28
2022-12-23T21:36:43.669Z,59.47
2022-12-23T21:39:14.801Z,61.58
2022-12-23T21:41:42.698Z,60.63
2022-12-23T21:44:11.753Z,54.63
2022-12-23T21:46:39.232Z,54.88
2022-12-23T21:49:06.752Z,48.53
2022-12-23T21:51:40.001Z,57.83
2022-12-23T21:54:11.936Z,50.83
2022-12-23T21:56:40.743Z,44.97
2022-12-23T21:59:13.445Z,44.22
2022-12-23T22:01:42.862Z,46.28
2022-12-23T22:04:11.343Z,47.40
2022-12-23T22:06:43.774Z,51.78
2022-12-23T22:09:17.270Z,53.15
2022-12-23T22:11:47.075Z,73.80
2022-12-23T22:14:16.873Z,82.57
2022-12-23T22:16:44.532Z,136.68
2022-12-23T22:19:12.425Z,108.50
2022-12-23T22:21:40.126Z,197.13
2022-12-23T22:24:08.434Z,114.03
2022-12-23T22:26:36.194Z,171.20
2022-12-23T22:29:05.702Z,129.63
2022-12-23T22:31:37.979Z,122.30
2022-12-23T22:34:07.145Z,95.28
2022-12-23T22:36:35.183Z,90.72
2022-12-23T22:39:03.042Z,96.72
2022-12-23T22:41:31.276Z,93.10
2022-12-23T22:43:59.912Z,94.15
2022-12-23T22:46:27.905Z,96.63
2022-12-23T22:48:56.448Z,96.43
2022-12-23T22:51:29.552Z,142.55
2022-12-23T22:53:57.851Z,163.18
2022-12-23T22:56:26.502Z,129.55
2022-12-23T22:58:55.559Z,132.50
2022-12-23T23:01:29.303Z,128.35
2022-12-23T23:03:58.633Z,141.73
2022-12-23T23:06:29.402Z,131.07
2022-12-23T23:08:58.142Z,198.60
2022-12-23T23:11:27.206Z,145.10
2022-12-23T23:13:55.324Z,109.60
2022-12-23T23:16:24.565Z,89.38
2022-12-23T23:18:53.162Z,96.32
2022-12-23T23:21:22.515Z,97.72
2022-12-23T23:23:50.199Z,99.32
2022-12-23T23:26:19.013Z,99.80
2022-12-23T23:28:47.412Z,85.65
2022-12-23T23:31:45.364Z,84.95
2022-12-23T23:34:03.114Z,80.70
2022-12-23T23:36:30.604Z,83.18
2022-12-23T23:38:58.379Z,109.53
2022-12-23T23:41:26.636Z,104.18
2022-12-23T23:43:54.247Z,93.10
2022-12-23T23:46:21.865Z,112.57
2022-12-23T23:48:49.627Z,121.72
2022-12-23T23:51:17.618Z,115.13
2022-12-23T23:53:45.419Z,112.32
2022-12-23T23:56:12.933Z,105.28
2022-12-23T23:58:40.510Z,104.45
